Terminal Aerodrome Forecast
Issued by NWS

Home | Current Version | Previous Version | Text Only | Print | Product List | Glossary Off
Versions: 1 2 3 4 5 6 7 8 9 10 11 12 13 14 15 16 17 18 19 20 21

000
FTUS43 KBIS 281400 AAB
TAFMOT
TAF AMD
KMOT 281411Z 2814/2912 32017G23KT P6SM BKN012 OVC025
      TEMPO 2814/2816 6SM -SN
     FM282200 32010KT P6SM BKN025 BKN035
     FM290300 29005KT P6SM SCT035=

USA.gov is the U.S. government's official web portal to all federal, state and local government web resources and services.